TimeEDT,TemperatureF,Dew PointF,Humidity,Sea Level PressureIn,VisibilityMPH,Wind Direction,Wind SpeedMPH,Gust SpeedMPH,PrecipitationIn,Events,Conditions,WindDirDegrees,DateUTC
12:53 AM,51.1,50.0,96,30.19,10.0,Calm,Calm,-,N/A,,Clear,0,2013-05-26 04:53:00
1:53 AM,50.0,48.9,96,30.18,10.0,Calm,Calm,-,N/A,,Clear,0,2013-05-26 05:53:00
2:53 AM,48.0,48.0,100,30.17,10.0,Calm,Calm,-,N/A,,Clear,0,2013-05-26 06:53:00
3:53 AM,46.9,46.9,100,30.18,10.0,Calm,Calm,-,N/A,,Clear,0,2013-05-26 07:53:00
4:53 AM,46.9,46.9,100,30.19,10.0,Calm,Calm,-,N/A,,Clear,0,2013-05-26 08:53:00
5:53 AM,46.0,46.0,100,30.22,10.0,Calm,Calm,-,N/A,,Clear,0,2013-05-26 09:53:00
6:53 AM,46.0,46.0,100,30.24,10.0,Calm,Calm,-,N/A,,Clear,0,2013-05-26 10:53:00
7:53 AM,53.1,52.0,96,30.26,10.0,Calm,Calm,-,N/A,,Clear,0,2013-05-26 11:53:00
8:53 AM,60.1,53.1,78,30.27,10.0,Calm,Calm,-,N/A,,Clear,0,2013-05-26 12:53:00
9:53 AM,66.0,54.0,65,30.26,10.0,Calm,Calm,-,N/A,,Clear,0,2013-05-26 13:53:00
10:53 AM,72.0,55.9,57,30.25,10.0,Variable,3.5,-,N/A,,Clear,0,2013-05-26 14:53:00
11:53 AM,77.0,54.0,45,30.25,10.0,Calm,Calm,-,N/A,,Partly Cloudy,0,2013-05-26 15:53:00
12:53 PM,78.1,48.9,36,30.24,10.0,Variable,3.5,-,N/A,,Clear,0,2013-05-26 16:53:00
1:53 PM,80.1,48.9,34,30.22,10.0,Variable,4.6,-,N/A,,Clear,0,2013-05-26 17:53:00
2:53 PM,82.0,53.1,37,30.21,10.0,NNW,4.6,-,N/A,,Clear,340,2013-05-26 18:53:00
3:53 PM,82.0,50.0,33,30.18,10.0,Calm,Calm,-,N/A,,Clear,0,2013-05-26 19:53:00
4:53 PM,82.0,51.1,34,30.17,10.0,Variable,3.5,-,N/A,,Clear,0,2013-05-26 20:53:00
5:53 PM,82.0,48.0,30,30.16,10.0,Calm,Calm,-,N/A,,Clear,0,2013-05-26 21:53:00
6:53 PM,81.0,48.0,31,30.15,10.0,Calm,Calm,-,N/A,,Clear,0,2013-05-26 22:53:00
7:53 PM,73.9,52.0,46,30.15,10.0,Calm,Calm,-,N/A,,Clear,0,2013-05-26 23:53:00
8:53 PM,63.0,57.0,81,30.15,10.0,Calm,Calm,-,N/A,,Clear,0,2013-05-27 00:53:00
9:53 PM,62.1,55.0,78,30.16,10.0,Calm,Calm,-,N/A,,Clear,0,2013-05-27 01:53:00
10:53 PM,60.1,54.0,80,30.17,10.0,Calm,Calm,-,N/A,,Clear,0,2013-05-27 02:53:00
11:53 PM,55.9,54.0,93,30.18,10.0,Calm,Calm,-,N/A,,Clear,0,2013-05-27 03:53:00